createdAt,value
2022-12-08T00:01:07.973Z,96125.63
2022-12-08T00:03:35.471Z,96123.34
2022-12-08T00:06:22.513Z,96120.78
2022-12-08T00:09:08.351Z,96122.28
2022-12-08T00:11:35.856Z,96120.50
2022-12-08T00:14:02.843Z,96123.06
2022-12-08T00:16:29.591Z,96123.34
2022-12-08T00:18:56.370Z,96116.31
2022-12-08T00:21:23.061Z,96119.63
2022-12-08T00:23:49.803Z,96112.13
2022-12-08T00:26:16.473Z,96101.63
2022-12-08T00:28:43.560Z,96099.75
2022-12-08T00:31:12.087Z,96101.28
2022-12-08T00:33:39.501Z,96101.28
2022-12-08T00:36:08.020Z,96098.22
2022-12-08T00:38:36.054Z,96099.00
2022-12-08T00:41:04.344Z,96098.41
2022-12-08T00:43:30.961Z,96091.78
2022-12-08T00:45:57.707Z,96094.81
2022-12-08T00:48:24.426Z,96090.44
2022-12-08T00:50:51.104Z,96090.16
2022-12-08T00:53:17.772Z,96084.56
2022-12-08T00:55:44.598Z,96077.88
2022-12-08T00:58:11.341Z,96068.94
2022-12-08T01:00:41.281Z,96082.56
2022-12-08T01:03:13.056Z,96079.22
2022-12-08T01:05:39.779Z,96064.59
2022-12-08T01:08:07.299Z,96067.44
2022-12-08T01:10:38.606Z,96071.06
2022-12-08T01:13:05.701Z,96067.34
2022-12-08T01:15:32.476Z,96071.81
2022-12-08T01:17:59.199Z,96069.91
2022-12-08T01:20:26.064Z,96070.19
2022-12-08T01:22:52.740Z,96075.50
2022-12-08T01:25:19.492Z,96078.19
2022-12-08T01:27:46.225Z,96075.72
2022-12-08T01:30:13.564Z,96070.22
2022-12-08T01:32:40.322Z,96072.00
2022-12-08T01:35:07.274Z,96076.19
2022-12-08T01:37:33.928Z,96075.44
2022-12-08T01:40:00.718Z,96076.19
2022-12-08T01:42:27.469Z,96072.56
2022-12-08T01:44:58.180Z,96071.06
2022-12-08T01:47:27.842Z,96064.69
2022-12-08T01:49:54.829Z,96070.56
2022-12-08T01:52:41.677Z,96070.88
2022-12-08T01:55:17.323Z,96065.25
2022-12-08T01:57:49.194Z,96066.78
2022-12-08T02:00:18.391Z,96069.81
2022-12-08T02:02:57.478Z,96064.97
2022-12-08T02:05:27.527Z,96063.81
2022-12-08T02:07:55.436Z,96059.19
2022-12-08T02:10:24.859Z,96047.88
2022-12-08T02:12:54.926Z,96048.13
2022-12-08T02:15:41.605Z,96053.00
2022-12-08T02:18:40.910Z,96051.25
2022-12-08T02:21:23.575Z,96033.97
2022-12-08T02:24:22.996Z,96038.84
2022-12-08T02:27:14.042Z,96038.09
2022-12-08T02:30:05.027Z,96030.28
2022-12-08T02:32:46.978Z,96028.38
2022-12-08T02:35:25.662Z,96025.53
2022-12-08T02:38:17.411Z,96017.56
2022-12-08T02:41:09.188Z,96020.13
2022-12-08T02:43:44.132Z,96015.44
2022-12-08T02:46:37.299Z,96021.34
2022-12-08T02:49:05.274Z,96008.22
2022-12-08T02:51:31.950Z,96011.56
2022-12-08T02:53:59.624Z,96011.28
2022-12-08T02:56:59.332Z,96014.03
2022-12-08T02:59:38.186Z,96010.13
2022-12-08T03:02:13.968Z,96013.28
2022-12-08T03:05:08.381Z,96006.59
2022-12-08T03:07:47.816Z,96000.94
2022-12-08T03:10:51.138Z,95991.56
2022-12-08T03:13:23.238Z,96002.72
2022-12-08T03:15:51.937Z,95998.81
2022-12-08T03:18:23.492Z,95995.31
2022-12-08T03:20:51.270Z,95985.53
2022-12-08T03:23:19.712Z,95993.22
2022-12-08T03:26:02.285Z,96001.69
2022-12-08T03:28:29.649Z,95999.38
2022-12-08T03:31:00.093Z,95994.75
2022-12-08T03:33:31.669Z,95989.88
2022-12-08T03:36:01.499Z,95985.22
2022-12-08T03:38:37.821Z,95976.78
2022-12-08T03:41:19.736Z,95976.78
2022-12-08T03:43:54.808Z,95975.81
2022-12-08T03:48:49.529Z,95968.09
2022-12-08T03:51:16.900Z,95967.84
2022-12-08T03:53:43.798Z,95967.84
2022-12-08T03:56:27.254Z,95957.66
2022-12-08T03:58:55.053Z,95959.97
2022-12-08T04:01:21.950Z,95950.72
2022-12-08T04:03:49.081Z,95948.16
2022-12-08T04:06:16.427Z,95954.25
2022-12-08T04:08:43.257Z,95942.16
2022-12-08T04:11:10.665Z,95942.00
2022-12-08T04:13:38.752Z,95939.44
2022-12-08T04:16:05.906Z,95932.00
2022-12-08T04:18:33.901Z,95935.22
2022-12-08T04:21:00.875Z,95935.81
2022-12-08T04:23:27.781Z,95923.53
2022-12-08T04:25:54.702Z,95924.59
2022-12-08T04:28:21.900Z,95919.16
2022-12-08T04:30:49.496Z,95926.13
2022-12-08T04:33:16.643Z,95921.47
2022-12-08T04:35:43.593Z,95923.16
2022-12-08T04:38:10.322Z,95921.63
2022-12-08T04:40:37.060Z,95926.78
2022-12-08T04:43:03.732Z,95919.91
2022-12-08T04:45:31.065Z,95919.84
2022-12-08T04:47:59.143Z,95924.59
2022-12-08T04:50:26.352Z,95914.78
2022-12-08T04:52:53.205Z,95908.31
2022-12-08T04:55:20.043Z,95912.59
2022-12-08T04:57:46.987Z,95905.97
2022-12-08T05:00:14.294Z,95912.72
2022-12-08T05:02:41.083Z,95915.00
2022-12-08T05:05:08.457Z,95905.69
2022-12-08T05:07:35.336Z,95917.19
2022-12-08T05:10:03.134Z,95909.88
2022-12-08T05:12:30.112Z,95908.25
2022-12-08T05:14:56.788Z,95910.53
2022-12-08T05:17:23.465Z,95897.53
2022-12-08T05:19:50.188Z,95906.16
2022-12-08T05:22:16.949Z,95906.91
2022-12-08T05:24:47.385Z,95899.03
2022-12-08T05:27:14.879Z,95902.09
2022-12-08T05:29:42.240Z,95902.09
2022-12-08T05:32:11.837Z,95896.97
2022-12-08T05:34:38.514Z,95901.50
2022-12-08T05:37:05.232Z,95908.16
2022-12-08T05:39:31.915Z,95897.88
2022-12-08T05:41:59.717Z,95898.47
2022-12-08T05:44:26.817Z,95903.31
2022-12-08T05:46:53.536Z,95909.00
2022-12-08T05:49:20.429Z,95897.72
2022-12-08T05:51:47.073Z,95902.53
2022-12-08T05:54:14.370Z,95900.47
2022-12-08T05:56:41.061Z,95901.50
2022-12-08T05:59:08.447Z,95905.59
2022-12-08T06:01:35.746Z,95903.78
2022-12-08T06:04:04.153Z,95905.09
2022-12-08T06:06:36.289Z,95903.03
2022-12-08T06:09:04.005Z,95907.22
2022-12-08T06:11:31.823Z,95905.88
2022-12-08T06:13:59.297Z,95899.69
2022-12-08T06:16:28.118Z,95895.63
2022-12-08T06:18:55.707Z,95907.41
2022-12-08T06:21:22.554Z,95903.78
2022-12-08T06:23:51.471Z,95906.81
2022-12-08T06:26:18.997Z,95910.72
2022-12-08T06:28:47.122Z,95907.88
2022-12-08T06:31:15.811Z,95917.34
2022-12-08T06:33:43.147Z,95911.94
2022-12-08T06:36:12.801Z,95917.66
2022-12-08T06:38:43.358Z,95917.66
2022-12-08T06:41:12.132Z,95918.41
2022-12-08T06:43:39.054Z,95919.16
2022-12-08T06:46:08.333Z,95912.53
2022-12-08T06:48:35.098Z,95917.66
2022-12-08T06:51:12.643Z,95915.09
2022-12-08T06:53:39.981Z,95913.28
2022-12-08T06:56:07.523Z,95911.94
2022-12-08T06:58:34.867Z,95922.41
2022-12-08T07:01:06.632Z,95919.91
2022-12-08T07:03:33.616Z,95921.16
2022-12-08T07:06:04.089Z,95932.47
2022-12-08T07:08:33.608Z,95923.28
2022-12-08T07:11:06.674Z,95919.66
2022-12-08T07:13:33.436Z,95920.88
2022-12-08T07:16:00.166Z,95920.22
2022-12-08T07:18:26.915Z,95917.34
2022-12-08T07:20:53.717Z,95929.91
2022-12-08T07:23:20.376Z,95926.28
2022-12-08T07:25:47.080Z,95929.34
2022-12-08T07:28:13.826Z,95942.16
2022-12-08T07:30:40.614Z,95933.41
2022-12-08T07:33:07.355Z,95938.28
2022-12-08T07:35:35.259Z,95940.84
2022-12-08T07:38:02.625Z,95938.56
2022-12-08T07:40:29.507Z,95938.28
2022-12-08T07:42:56.269Z,95933.59
2022-12-08T07:45:29.802Z,95935.38
2022-12-08T07:47:58.316Z,95938.16
2022-12-08T07:50:25.036Z,95947.19
2022-12-08T07:52:51.700Z,95934.03
2022-12-08T07:55:18.530Z,95943.56
2022-12-08T07:57:45.171Z,95947.38
2022-12-08T08:00:12.507Z,95946.59
2022-12-08T08:02:39.916Z,95946.31
2022-12-08T08:05:07.208Z,95951.75
2022-12-08T08:07:34.163Z,95953.81
2022-12-08T08:10:01.487Z,95948.13
2022-12-08T08:12:32.638Z,95955.06
2022-12-08T08:15:01.367Z,95949.94
2022-12-08T08:17:29.025Z,95950.09
2022-12-08T08:19:55.977Z,95952.66
2022-12-08T08:22:22.936Z,95951.34
2022-12-08T08:24:49.683Z,95953.16
2022-12-08T08:27:16.440Z,95955.25
2022-12-08T08:29:43.179Z,95954.66
2022-12-08T08:32:10.014Z,95953.91
2022-12-08T08:34:36.756Z,95961.91
2022-12-08T08:37:03.526Z,95951.66
2022-12-08T08:39:32.019Z,95952.84
2022-12-08T08:41:59.044Z,95951.25
2022-12-08T08:44:25.816Z,95949.91
2022-12-08T08:46:52.743Z,95950.19
2022-12-08T08:49:20.175Z,95951.25
2022-12-08T08:51:46.984Z,95946.28
2022-12-08T08:54:13.761Z,95951.41
2022-12-08T08:56:40.412Z,95945.72
2022-12-08T08:59:07.443Z,95948.00
2022-12-08T09:01:34.286Z,95945.59
2022-12-08T09:04:01.654Z,95939.41
2022-12-08T09:06:28.719Z,95944.84
2022-12-08T09:08:55.809Z,95940.34
2022-12-08T09:11:25.664Z,95947.75
2022-12-08T09:13:53.841Z,95942.59
2022-12-08T09:16:21.965Z,95961.16
2022-12-08T09:18:51.638Z,95946.72
2022-12-08T09:21:22.927Z,95937.16
2022-12-08T09:23:50.990Z,95945.25
2022-12-08T09:26:17.840Z,95951.13
2022-12-08T09:28:46.611Z,95958.56
2022-12-08T09:31:14.741Z,95948.94
2022-12-08T09:33:42.160Z,95961.03
2022-12-08T09:36:10.138Z,95956.06
2022-12-08T09:38:38.204Z,95956.06
2022-12-08T09:41:16.384Z,95947.50
2022-12-08T09:43:56.689Z,95957.78
2022-12-08T09:46:26.485Z,95958.06
2022-12-08T09:48:57.078Z,95957.56
2022-12-08T09:51:25.949Z,95961.25
2022-12-08T09:53:59.970Z,95957.44
2022-12-08T09:56:30.429Z,95955.09
2022-12-08T09:59:01.955Z,95951.63
2022-12-08T10:01:34.346Z,95949.59
2022-12-08T10:04:01.705Z,95954.84
2022-12-08T10:06:37.793Z,95949.44
2022-12-08T10:09:23.206Z,95947.78
2022-12-08T10:12:00.179Z,95951.72
2022-12-08T10:15:14.809Z,95945.09
2022-12-08T10:17:46.160Z,95951.09
2022-12-08T10:20:18.100Z,95942.63
2022-12-08T10:22:48.294Z,95940.56
2022-12-08T10:25:20.714Z,95938.84
2022-12-08T10:27:51.450Z,95942.25
2022-12-08T10:30:20.625Z,95935.63
2022-12-08T10:32:51.208Z,95939.88
2022-12-08T10:35:20.361Z,95935.97
2022-12-08T10:37:58.720Z,95936.56
2022-12-08T10:40:28.942Z,95949.16
2022-12-08T10:42:59.897Z,95944.69
2022-12-08T10:45:33.490Z,95948.25
2022-12-08T10:48:02.943Z,95961.63
2022-12-08T10:50:44.566Z,95955.91
2022-12-08T10:53:21.338Z,95952.16
2022-12-08T10:55:51.020Z,95962.38
2022-12-08T10:58:24.942Z,95954.88
2022-12-08T11:00:58.011Z,95962.59
2022-12-08T11:03:34.761Z,95951.00
2022-12-08T11:06:11.109Z,95949.47
2022-12-08T11:08:47.177Z,95958.41
2022-12-08T11:11:14.238Z,95969.13
2022-12-08T11:13:42.525Z,95966.47
2022-12-08T11:16:13.611Z,95971.97
2022-12-08T11:18:43.343Z,95962.91
2022-12-08T11:21:17.056Z,95975.00
2022-12-08T11:23:46.800Z,95975.00
2022-12-08T11:26:18.006Z,95963.03
2022-12-08T11:28:44.820Z,95959.75
2022-12-08T11:31:22.580Z,95957.63
2022-12-08T11:33:51.628Z,95957.13
2022-12-08T11:36:22.359Z,95970.13
2022-12-08T11:38:52.303Z,95967.22
2022-12-08T11:41:27.029Z,95961.91
2022-12-08T11:44:12.598Z,95970.75
2022-12-08T11:46:46.767Z,95976.91
2022-12-08T11:49:14.598Z,95971.22
2022-12-08T11:51:51.639Z,95971.59
2022-12-08T11:54:30.059Z,95957.69
2022-12-08T11:56:58.762Z,95962.22
2022-12-08T11:59:34.557Z,95956.31
2022-12-08T12:02:04.303Z,95950.97
2022-12-08T12:04:37.447Z,95945.81
2022-12-08T12:07:26.113Z,95946.63
2022-12-08T12:10:24.613Z,95927.69
2022-12-08T12:13:06.639Z,95924.50
2022-12-08T12:15:51.301Z,95916.47
2022-12-08T12:18:46.661Z,95902.38
2022-12-08T12:21:33.001Z,95904.50
2022-12-08T12:24:08.808Z,95903.03
2022-12-08T12:26:38.054Z,95900.72
2022-12-08T12:29:13.133Z,95903.63
2022-12-08T12:31:43.436Z,95902.88
2022-12-08T12:34:23.844Z,95905.91
2022-12-08T12:36:55.425Z,95895.59
2022-12-08T12:39:27.036Z,95896.06
2022-12-08T12:42:04.958Z,95893.34
2022-12-08T12:44:34.391Z,95902.00
2022-12-08T12:47:03.147Z,95903.81
2022-12-08T12:49:38.925Z,95907.38
2022-12-08T12:52:23.656Z,95904.28
2022-12-08T12:54:50.495Z,95908.97
2022-12-08T12:57:20.202Z,95925.16
2022-12-08T12:59:55.680Z,95934.69
2022-12-08T13:02:44.111Z,95930.81
2022-12-08T13:05:24.807Z,95948.53
2022-12-08T13:08:07.924Z,95969.53
2022-12-08T13:10:37.989Z,95981.50
2022-12-08T13:13:18.641Z,95996.63
2022-12-08T13:15:57.696Z,95999.94
2022-12-08T13:18:49.237Z,95996.00
2022-12-08T13:21:23.873Z,95997.22
2022-12-08T13:24:11.184Z,95997.22
2022-12-08T13:26:48.314Z,95997.53
2022-12-08T13:29:17.780Z,95985.44
2022-12-08T13:31:59.649Z,95990.25
2022-12-08T13:34:38.240Z,96012.34
2022-12-08T13:37:10.764Z,96004.97
2022-12-08T13:39:40.195Z,95985.66
2022-12-08T13:42:12.883Z,95975.72
2022-12-08T13:48:13.694Z,95967.66
2022-12-08T13:52:41.505Z,95969.28
2022-12-08T13:59:33.932Z,95951.13
2022-12-08T14:02:47.774Z,95951.88
2022-12-08T14:05:18.640Z,95950.03
2022-12-08T14:07:48.362Z,95951.47
2022-12-08T14:10:21.331Z,95947.59
2022-12-08T14:12:54.985Z,95963.81
2022-12-08T14:15:22.430Z,95986.31
2022-12-08T14:17:54.157Z,95971.47
2022-12-08T14:20:24.316Z,95976.28
2022-12-08T14:22:52.246Z,95968.69
2022-12-08T14:25:20.159Z,95968.09
2022-12-08T14:27:48.279Z,95961.78
2022-12-08T14:30:24.744Z,95981.34
2022-12-08T14:32:55.049Z,95977.78
2022-12-08T14:35:30.601Z,95964.47
2022-12-08T14:38:02.811Z,95959.59
2022-12-08T14:40:34.569Z,95962.97
2022-12-08T14:43:10.508Z,95953.78
2022-12-08T14:45:40.270Z,95958.41
2022-12-08T14:48:19.657Z,95965.28
2022-12-08T14:51:21.615Z,95958.25
2022-12-08T14:54:00.488Z,95958.63
2022-12-08T14:56:37.850Z,95949.63
2022-12-08T14:59:11.865Z,95946.66
2022-12-08T15:01:39.934Z,95943.16
2022-12-08T15:04:20.040Z,95957.16
2022-12-08T15:07:04.909Z,95955.44
2022-12-08T15:09:36.864Z,95953.13
2022-12-08T15:12:15.993Z,95972.81
2022-12-08T15:14:54.692Z,95983.19
2022-12-08T15:17:47.870Z,95972.25
2022-12-08T15:20:39.402Z,95978.72
2022-12-08T15:23:07.095Z,95957.53
2022-12-08T15:25:36.972Z,95952.34
2022-12-08T15:28:04.039Z,95929.34
2022-12-08T15:30:31.398Z,95918.13
2022-12-08T15:32:58.309Z,95907.88
2022-12-08T15:35:25.234Z,95905.22
2022-12-08T15:37:52.032Z,95898.88
2022-12-08T15:40:21.489Z,95884.41
2022-12-08T15:42:48.976Z,95878.72
2022-12-08T15:45:17.035Z,95875.72
2022-12-08T15:47:45.299Z,95877.19
2022-12-08T15:50:22.125Z,95868.38
2022-12-08T15:52:50.070Z,95875.47
2022-12-08T15:55:19.820Z,95868.59
2022-12-08T15:58:51.163Z,95867.38
2022-12-08T16:00:54.469Z,95851.78
2022-12-08T16:06:57.639Z,95860.72
2022-12-08T16:09:12.703Z,95858.63
2022-12-08T16:12:07.625Z,95851.97
2022-12-08T16:17:22.664Z,95839.56
2022-12-08T16:19:49.407Z,95832.78
2022-12-08T16:25:18.281Z,95835.09
2022-12-08T16:28:17.498Z,95828.41
2022-12-08T16:30:33.600Z,95834.78
2022-12-08T16:33:00.295Z,95843.34
2022-12-08T16:35:27.250Z,95837.16
2022-12-08T16:37:54.191Z,95838.09
2022-12-08T16:40:21.201Z,95838.31
2022-12-08T16:42:50.036Z,95840.22
2022-12-08T16:45:23.506Z,95843.16
2022-12-08T16:47:52.352Z,95833.19
2022-12-08T16:50:31.197Z,95838.41
2022-12-08T16:53:04.027Z,95830.81
2022-12-08T16:55:30.997Z,95831.56
2022-12-08T16:57:58.131Z,95824.94
2022-12-08T17:00:27.370Z,95823.59
2022-12-08T17:02:55.308Z,95828.72
2022-12-08T17:05:24.411Z,95823.50
2022-12-08T17:07:52.635Z,95823.88
2022-12-08T17:10:23.250Z,95820.63
2022-12-08T17:12:50.725Z,95825.00
2022-12-08T17:15:20.548Z,95833.63
2022-12-08T17:17:47.340Z,95834.22
2022-12-08T17:20:20.127Z,95829.38
2022-12-08T17:22:47.666Z,95831.94
2022-12-08T17:25:15.016Z,95834.13
2022-12-08T17:27:42.235Z,95830.41
2022-12-08T17:30:11.892Z,95833.94
2022-12-08T17:32:38.945Z,95840.56
2022-12-08T17:35:07.020Z,95831.38
2022-12-08T17:37:34.325Z,95829.09
2022-12-08T17:40:01.174Z,95827.00
2022-12-08T17:42:27.911Z,95832.13
2022-12-08T17:44:54.936Z,95833.47
2022-12-08T17:47:22.445Z,95829.22
2022-12-08T17:49:49.257Z,95825.50
2022-12-08T17:52:15.990Z,95831.56
2022-12-08T17:54:42.747Z,95826.91
2022-12-08T17:57:09.576Z,95818.56
2022-12-08T17:59:36.299Z,95818.56
2022-12-08T18:02:04.585Z,95824.09
2022-12-08T18:04:31.563Z,95823.50
2022-12-08T18:07:00.325Z,95823.03
2022-12-08T18:09:27.319Z,95820.47
2022-12-08T18:11:54.178Z,95818.66
2022-12-08T18:14:21.046Z,95814.00
2022-12-08T18:16:48.146Z,95811.56
2022-12-08T18:19:17.279Z,95814.13
2022-12-08T18:21:44.124Z,95810.06
2022-12-08T18:24:22.298Z,95809.00
2022-12-08T18:26:50.700Z,95814.00
2022-12-08T18:29:17.650Z,95808.69
2022-12-08T18:31:44.475Z,95814.00
2022-12-08T18:34:11.690Z,95820.41
2022-12-08T18:36:38.448Z,95815.75
2022-12-08T18:39:10.530Z,95812.13
2022-12-08T18:41:37.617Z,95812.91
2022-12-08T18:44:04.563Z,95809.88
2022-12-08T18:46:31.380Z,95810.53
2022-12-08T18:48:59.504Z,95805.59
2022-12-08T18:51:26.302Z,95807.13
2022-12-08T18:53:53.221Z,95802.00
2022-12-08T18:56:31.268Z,95798.38
2022-12-08T18:59:03.515Z,95802.47
2022-12-08T19:01:32.901Z,95798.97
2022-12-08T19:06:47.727Z,95807.50
2022-12-08T19:09:15.376Z,95795.91
2022-12-08T19:11:43.341Z,95793.34
2022-12-08T19:14:11.245Z,95788.63
2022-12-08T19:16:38.046Z,95791.09
2022-12-08T19:19:05.223Z,95794.41
2022-12-08T19:21:32.488Z,95791.38
2022-12-08T19:24:00.114Z,95799.72
2022-12-08T19:26:28.305Z,95800.06
2022-12-08T19:28:55.048Z,95805.50
2022-12-08T19:31:22.073Z,95811.56
2022-12-08T19:33:49.022Z,95813.28
2022-12-08T19:36:19.161Z,95815.19
2022-12-08T19:39:04.450Z,95811.38
2022-12-08T19:41:49.777Z,95811.59
2022-12-08T19:44:46.523Z,95812.91
2022-12-08T19:47:13.972Z,95812.91
2022-12-08T19:49:41.152Z,95810.25
2022-12-08T19:52:08.462Z,95817.19
2022-12-08T19:54:35.435Z,95813.09
2022-12-08T19:57:02.408Z,95823.63
2022-12-08T19:59:30.374Z,95820.50
2022-12-08T20:01:58.590Z,95820.03
2022-12-08T20:04:27.100Z,95818.13
2022-12-08T20:06:56.651Z,95828.94
2022-12-08T20:09:24.752Z,95829.69
2022-12-08T20:11:54.663Z,95828.00
2022-12-08T20:14:22.745Z,95830.94
2022-12-08T20:16:50.420Z,95835.31
2022-12-08T20:19:17.339Z,95842.44
2022-12-08T20:21:44.067Z,95834.56
2022-12-08T20:24:11.051Z,95828.94
2022-12-08T20:26:38.026Z,95833.59
2022-12-08T20:29:04.902Z,95827.72
2022-12-08T20:31:33.074Z,95829.44
2022-12-08T20:34:00.601Z,95819.38
2022-12-08T20:36:28.016Z,95824.38
2022-12-08T20:38:55.174Z,95824.66
2022-12-08T20:41:23.528Z,95815.16
2022-12-08T20:43:51.215Z,95826.94
2022-12-08T20:46:18.763Z,95827.72
2022-12-08T20:48:45.494Z,95831.22
2022-12-08T20:51:17.230Z,95833.84
2022-12-08T20:53:44.124Z,95829.13
2022-12-08T20:56:18.263Z,95837.75
2022-12-08T20:58:45.550Z,95825.97
2022-12-08T21:01:15.440Z,95817.53
2022-12-08T21:03:44.161Z,95809.75
2022-12-08T21:06:12.221Z,95809.31
2022-12-08T21:08:39.911Z,95815.34
2022-12-08T21:11:08.825Z,95805.75
2022-12-08T21:13:37.376Z,95798.00
2022-12-08T21:16:05.475Z,95800.38
2022-12-08T21:18:38.995Z,95802.94
2022-12-08T21:21:10.078Z,95796.50
2022-12-08T21:23:37.213Z,95800.47
2022-12-08T21:26:10.501Z,95801.97
2022-12-08T21:28:37.340Z,95799.97
2022-12-08T21:31:13.202Z,95804.72
2022-12-08T21:33:40.301Z,95814.88
2022-12-08T21:36:11.711Z,95817.75
2022-12-08T21:38:39.788Z,95828.25
2022-12-08T21:41:10.073Z,95822.56
2022-12-08T21:43:36.959Z,95823.88
2022-12-08T21:46:04.280Z,95827.31
2022-12-08T21:48:31.378Z,95818.56
2022-12-08T21:51:03.925Z,95814.88
2022-12-08T21:53:30.819Z,95817.16
2022-12-08T21:55:57.550Z,95813.56
2022-12-08T21:58:24.482Z,95819.06
2022-12-08T22:00:51.418Z,95820.66
2022-12-08T22:03:18.464Z,95827.88
2022-12-08T22:05:45.367Z,95838.13
2022-12-08T22:08:12.225Z,95831.19
2022-12-08T22:10:39.074Z,95830.44
2022-12-08T22:13:05.917Z,95828.47
2022-12-08T22:15:33.127Z,95821.91
2022-12-08T22:17:59.991Z,95834.41
2022-12-08T22:20:27.063Z,95825.97
2022-12-08T22:22:53.822Z,95835.34
2022-12-08T22:25:21.084Z,95829.56
2022-12-08T22:27:47.893Z,95827.81
2022-12-08T22:30:14.931Z,95833.56
2022-12-08T22:32:42.423Z,95814.41
2022-12-08T22:35:10.071Z,95808.22
2022-12-08T22:37:36.713Z,95813.31
2022-12-08T22:40:04.570Z,95814.28
2022-12-08T22:42:31.685Z,95809.41
2022-12-08T22:44:58.395Z,95805.66
2022-12-08T22:47:25.199Z,95793.41
2022-12-08T22:49:51.890Z,95790.59
2022-12-08T22:52:18.652Z,95780.34
2022-12-08T22:54:45.383Z,95783.47
2022-12-08T22:57:12.726Z,95779.75
2022-12-08T22:59:41.025Z,95772.47
2022-12-08T23:02:08.335Z,95771.13
2022-12-08T23:04:35.876Z,95767.16
2022-12-08T23:07:03.486Z,95775.31
2022-12-08T23:09:30.639Z,95770.88
2022-12-08T23:11:57.348Z,95777.59
2022-12-08T23:14:24.085Z,95778.63
2022-12-08T23:16:51.084Z,95770.94
2022-12-08T23:19:17.971Z,95769.91
2022-12-08T23:21:44.965Z,95774.63
2022-12-08T23:24:11.654Z,95772.06
2022-12-08T23:26:38.361Z,95774.53
2022-12-08T23:29:05.467Z,95776.41
2022-12-08T23:31:32.232Z,95766.00
2022-12-08T23:33:59.004Z,95763.91
2022-12-08T23:36:26.989Z,95758.53
2022-12-08T23:38:55.015Z,95759.69
2022-12-08T23:41:22.078Z,95759.88
2022-12-08T23:43:50.863Z,95751.72
2022-12-08T23:46:20.427Z,95759.94
2022-12-08T23:48:47.643Z,95748.31
2022-12-08T23:51:15.050Z,95744.69
2022-12-08T23:53:42.101Z,95739.75
2022-12-08T23:56:11.635Z,95747.00
2022-12-08T23:58:39.120Z,95736.63
